Time;durP1;ratioP1;P1;durP2;ratioP2;P2;SDS_P1;SDS_P2;PMS_P1;PMS_P2;Temp;Humidity;BMP_temperature;BMP_pressure;BME280_temperature;BME280_humidity;BME280_pressure;Samples;Min_cycle;Max_cycle;Signal;HPM_P1;HPM_P2
2023/07/03 09:17:26;;;;;;;;;;;;;;;27.59;64.25;95047.22;5131835;27;1240;-53
2023/07/03 09:19:53;;;;;;;;;;;;;;;27.74;62.36;95050.00;5132037;27;1022;-53
2023/07/03 09:22:25;;;;;;;;;;;;;;;27.60;61.56;95048.84;5131872;27;999;-53
2023/07/03 09:24:53;;;;;;;;;;;;;;;27.65;64.97;95043.38;5130723;28;1035;-53
2023/07/03 09:27:23;;;;;;;;;;;;;;;27.36;60.77;95034.81;5131638;27;1086;-53
2023/07/03 09:29:49;;;;;;;;;;;;;;;27.64;64.86;95028.84;5131629;27;1071;-53
2023/07/03 09:32:25;;;;;;;;;;;;;;;27.87;64.59;95039.56;5131422;27;1132;-53
2023/07/03 09:35:05;;;;;;;;;;;;;;;28.17;63.95;95044.28;5131567;27;1042;-53
2023/07/03 09:37:35;;;;;;;;;;;;;;;28.22;62.63;95041.53;5131488;27;1060;-53
2023/07/03 09:40:04;;;;;;;;;;;;;;;28.26;62.58;95056.38;5131484;27;1039;-53
2023/07/03 09:42:32;;;;;;;;;;;;;;;28.14;61.80;95053.91;5131193;27;1078;-53
2023/07/03 09:44:58;;;;;;;;;;;;;;;28.00;60.26;95050.03;5131319;27;1386;-53
2023/07/03 09:47:28;;;;;;;;;;;;;;;28.03;62.95;95055.81;5131267;28;979;-53
2023/07/03 09:50:01;;;;;;;;;;;;;;;28.09;65.85;95055.84;5131223;27;1023;-53
2023/07/03 09:52:27;;;;;;;;;;;;;;;28.26;61.01;95056.38;5131070;27;1184;-53
2023/07/03 09:54:53;;;;;;;;;;;;;;;28.27;62.35;95048.94;5130967;27;1075;-53
2023/07/03 09:57:24;;;;;;;;;;;;;;;28.02;59.37;95040.44;5130668;27;1914;-53
2023/07/03 09:59:52;;;;;;;;;;;;;;;27.67;60.67;95038.44;5131198;27;997;-53
2023/07/03 10:02:22;;;;;;;;;;;;;;;27.66;59.66;95028.56;5131031;27;984;-53
2023/07/03 10:04:48;;;;;;;;;;;;;;;27.85;60.46;95040.69;5131060;27;965;-53
2023/07/03 10:07:15;;;;;;;;;;;;;;;27.80;61.54;95042.59;5130735;27;1095;-53
2023/07/03 10:09:42;;;;;;;;;;;;;;;27.42;57.80;95033.72;5130799;27;1049;-53
2023/07/03 10:12:25;;;;;;;;;;;;;;;27.30;61.74;95033.97;5130681;27;1431;-52
2023/07/03 10:14:55;;;;;;;;;;;;;;;27.16;63.38;95035.50;5130908;27;1094;-53
2023/07/03 10:17:42;;;;;;;;;;;;;;;27.03;65.70;95028.59;5130300;27;1918;-53
2023/07/03 10:20:11;;;;;;;;;;;;;;;26.85;65.97;95038.13;5130527;28;1212;-52
2023/07/03 10:22:41;;;;;;;;;;;;;;;27.21;65.85;95041.03;5130472;27;1048;-53
2023/07/03 10:25:10;;;;;;;;;;;;;;;27.56;63.09;95042.25;5130456;27;1019;-53
2023/07/03 10:27:37;;;;;;;;;;;;;;;27.72;61.92;95051.38;5124004;27;964;-53
2023/07/03 10:30:04;;;;;;;;;;;;;;;27.72;65.82;95046.69;5116990;28;1036;-53
2023/07/03 10:32:33;;;;;;;;;;;;;;;27.48;63.39;95038.13;5116623;28;1860;-54
2023/07/03 10:35:02;;;;;;;;;;;;;;;27.20;62.22;95050.34;5116762;28;999;-55
2023/07/03 10:37:31;;;;;;;;;;;;;;;26.98;64.69;95045.88;5116847;28;973;-56
2023/07/03 10:40:09;;;;;;;;;;;;;;;27.15;62.32;95042.09;5116817;28;1018;-53
2023/07/03 10:42:38;;;;;;;;;;;;;;;27.43;62.79;95044.44;5116636;28;1205;-53
2023/07/03 10:45:07;;;;;;;;;;;;;;;27.73;64.55;95048.34;5116652;28;1023;-53
2023/07/03 10:47:39;;;;;;;;;;;;;;;27.90;63.95;95050.03;5116387;27;1047;-53
2023/07/03 10:50:05;;;;;;;;;;;;;;;28.04;60.47;95057.47;5116528;27;1019;-53
2023/07/03 10:52:31;;;;;;;;;;;;;;;27.91;59.96;95047.03;5115328;28;960;-53
2023/07/03 10:55:01;;;;;;;;;;;;;;;27.65;58.25;95043.38;5116424;28;1177;-53
2023/07/03 10:57:37;;;;;;;;;;;;;;;27.60;62.17;95041.47;5116163;27;1309;-53
2023/07/03 11:00:07;;;;;;;;;;;;;;;27.82;63.01;95035.72;5116300;28;952;-53
2023/07/03 11:02:34;;;;;;;;;;;;;;;28.13;62.59;95040.44;5116401;28;1031;-53
2023/07/03 11:05:00;;;;;;;;;;;;;;;28.37;59.57;95037.97;5116092;27;1027;-53
2023/07/03 11:07:29;;;;;;;;;;;;;;;28.49;62.50;95045.94;5116009;28;1024;-53
2023/07/03 11:09:58;;;;;;;;;;;;;;;28.62;58.11;95042.63;5116048;28;909;-53
2023/07/03 11:12:43;;;;;;;;;;;;;;;28.62;58.57;95037.94;5115834;28;1968;-53
2023/07/03 11:15:12;;;;;;;;;;;;;;;28.67;58.56;95033.56;5116023;28;1985;-53
2023/07/03 11:17:55;;;;;;;;;;;;;;;28.72;58.58;95028.88;5116096;28;1052;-53
2023/07/03 11:20:27;;;;;;;;;;;;;;;28.90;60.04;95027.44;5115891;28;959;-53
2023/07/03 11:23:12;;;;;;;;;;;;;;;28.92;56.80;95021.66;5115878;28;999;-53
2023/07/03 11:25:51;;;;;;;;;;;;;;;28.75;58.90;95024.75;5115822;28;1043;-53
2023/07/03 11:28:29;;;;;;;;;;;;;;;28.74;59.71;95017.56;5115718;28;983;-53
2023/07/03 11:30:58;;;;;;;;;;;;;;;28.70;57.41;95013.75;5115606;28;1099;-53
2023/07/03 11:33:24;;;;;;;;;;;;;;;28.76;56.40;95013.47;5114299;28;1050;-55
2023/07/03 11:35:51;;;;;;;;;;;;;;;28.85;58.60;95021.94;5115764;28;1905;-55
2023/07/03 11:38:19;;;;;;;;;;;;;;;28.78;58.13;95019.50;5114911;28;1094;-55
2023/07/03 11:40:49;;;;;;;;;;;;;;;28.45;57.67;95014.59;5114927;28;1018;-53
2023/07/03 11:43:32;;;;;;;;;;;;;;;28.37;59.53;95013.22;5115425;28;960;-53
2023/07/03 11:45:58;;;;;;;;;;;;;;;28.20;58.75;95011.59;5115358;28;1043;-53
2023/07/03 11:48:27;;;;;;;;;;;;;;;28.18;62.77;95011.03;5115467;28;976;-53
2023/07/03 11:50:56;;;;;;;;;;;;;;;28.27;60.48;95007.72;5115470;28;1006;-53
2023/07/03 11:53:33;;;;;;;;;;;;;;;28.36;59.82;95006.06;5115229;28;1146;-53
2023/07/03 11:55:59;;;;;;;;;;;;;;;28.64;61.31;95009.34;5115010;28;1902;-53
2023/07/03 11:58:26;;;;;;;;;;;;;;;28.73;58.31;95008.50;5114958;28;1039;-53
2023/07/03 12:01:31;;;;;;;;;;;;;;;28.65;53.24;95006.34;5113934;28;1382;-53
2023/07/03 12:03:59;;;;;;;;;;;;;;;28.68;57.25;95002.19;5052092;28;1298;-53
2023/07/03 12:06:40;;;;;;;;;;;;;;;28.54;57.01;94997.28;5052083;28;1119;-53
2023/07/03 12:09:29;;;;;;;;;;;;;;;28.40;55.94;94991.50;5080138;28;1115;-53
2023/07/03 12:11:59;;;;;;;;;;;;;;;28.54;55.33;94997.28;5114997;28;1463;-53
2023/07/03 12:14:40;;;;;;;;;;;;;;;28.57;55.10;94996.72;5114814;28;1039;-53
2023/07/03 12:17:21;;;;;;;;;;;;;;;28.67;57.38;94987.63;5114591;28;1979;-53
2023/07/03 12:19:48;;;;;;;;;;;;;;;28.76;56.88;94987.84;5114607;28;1118;-53
2023/07/03 12:22:15;;;;;;;;;;;;;;;28.75;56.38;94984.28;5114809;28;1006;-53
2023/07/03 12:24:41;;;;;;;;;;;;;;;28.69;57.17;94981.84;5114659;28;1090;-53
2023/07/03 12:27:08;;;;;;;;;;;;;;;28.68;55.82;94993.94;5114536;28;1094;-53
2023/07/03 12:29:35;;;;;;;;;;;;;;;28.76;53.90;94985.94;5114510;28;1018;-53
2023/07/03 12:32:07;;;;;;;;;;;;;;;28.86;54.69;94982.34;5114399;28;1019;-53
2023/07/03 12:34:35;;;;;;;;;;;;;;;28.81;51.41;94990.59;5114573;28;1035;-53
2023/07/03 12:37:07;;;;;;;;;;;;;;;28.75;54.91;94991.72;5114571;28;1985;-53
2023/07/03 12:39:33;;;;;;;;;;;;;;;28.83;53.60;94990.31;5114426;28;971;-53
2023/07/03 12:42:06;;;;;;;;;;;;;;;28.78;56.79;94982.94;5114327;28;1004;-53
2023/07/03 12:44:32;;;;;;;;;;;;;;;28.74;53.48;94985.41;5114169;28;1024;-53
2023/07/03 12:47:06;;;;;;;;;;;;;;;28.83;56.85;94973.81;5113293;28;947;-53
2023/07/03 12:49:45;;;;;;;;;;;;;;;28.84;54.45;94976.28;5114141;28;1071;-53
2023/07/03 12:52:13;;;;;;;;;;;;;;;28.75;55.42;94984.28;5114105;28;963;-53
2023/07/03 12:54:39;;;;;;;;;;;;;;;28.85;56.88;94974.34;5114185;28;1026;-53
2023/07/03 12:57:06;;;;;;;;;;;;;;;28.76;54.64;94976.84;5113813;28;1901;-53
2023/07/03 12:59:32;;;;;;;;;;;;;;;28.83;53.64;94979.31;5114238;28;974;-53
2023/07/03 13:01:58;;;;;;;;;;;;;;;28.87;54.54;94974.91;5112861;28;1035;-53
2023/07/03 13:04:29;;;;;;;;;;;;;;;28.92;50.97;94983.97;5114116;28;932;-53
2023/07/03 13:06:55;;;;;;;;;;;;;;;28.56;53.00;94986.00;5112966;28;1052;-53
2023/07/03 13:09:22;;;;;;;;;;;;;;;28.21;50.62;94980.25;5112673;28;944;-53
2023/07/03 13:11:48;;;;;;;;;;;;;;;27.92;54.77;94971.75;5113813;28;1443;-53
2023/07/03 13:14:15;;;;;;;;;;;;;;;27.75;54.09;94980.22;5112885;28;1137;-53
2023/07/03 13:16:42;;;;;;;;;;;;;;;27.88;54.75;94978.03;5113742;28;1914;-53
2023/07/03 13:19:08;;;;;;;;;;;;;;;28.21;53.87;94965.66;5113875;28;1075;-53
2023/07/03 13:21:35;;;;;;;;;;;;;;;28.48;54.02;94970.88;5113879;28;1014;-53
2023/07/03 13:24:20;;;;;;;;;;;;;;;28.69;51.64;94962.59;5113924;28;1017;-53
2023/07/03 13:26:49;;;;;;;;;;;;;;;28.73;49.67;94956.25;5113864;28;1106;-53
2023/07/03 13:29:20;;;;;;;;;;;;;;;28.77;51.05;94954.56;5113892;28;967;-53
2023/07/03 13:31:46;;;;;;;;;;;;;;;28.73;52.25;94966.44;5113929;28;1063;-53
2023/07/03 13:34:15;;;;;;;;;;;;;;;28.65;51.41;94966.97;5112411;28;1051;-53
2023/07/03 13:36:41;;;;;;;;;;;;;;;28.67;50.54;94962.06;5113639;28;1992;-53
2023/07/03 13:39:07;;;;;;;;;;;;;;;28.74;50.33;94973.56;5113903;28;1854;-53
2023/07/03 13:41:34;;;;;;;;;;;;;;;28.78;50.47;94970.00;5113552;28;1032;-53
2023/07/03 13:44:01;;;;;;;;;;;;;;;28.82;51.89;94962.00;5113576;28;1202;-53
2023/07/03 13:46:27;;;;;;;;;;;;;;;28.77;51.88;94962.81;5112284;28;1090;-53
2023/07/03 13:48:54;;;;;;;;;;;;;;;28.67;52.73;94970.31;5113612;28;973;-53
2023/07/03 13:51:21;;;;;;;;;;;;;;;28.58;53.11;94962.59;5113528;28;1059;-53
2023/07/03 13:53:48;;;;;;;;;;;;;;;28.55;52.97;94968.69;5113480;28;1047;-54
2023/07/03 13:56:14;;;;;;;;;;;;;;;28.50;51.41;94970.59;5113499;28;1905;-53
2023/07/03 13:58:40;;;;;;;;;;;;;;;28.34;51.69;94969.78;5113692;28;1032;-53
2023/07/03 14:01:07;;;;;;;;;;;;;;;28.35;52.41;94966.75;5113594;28;1015;-54
2023/07/03 14:03:33;;;;;;;;;;;;;;;28.36;51.14;94965.66;5116091;28;969;-54
2023/07/03 14:05:59;;;;;;;;;;;;;;;28.45;52.72;94962.34;5117247;28;1083;-54
2023/07/03 14:08:27;;;;;;;;;;;;;;;28.44;51.27;94961.53;5117094;28;1024;-54
2023/07/03 14:10:53;;;;;;;;;;;;;;;28.33;51.14;94959.91;5116270;28;1349;-53
2023/07/03 14:13:19;;;;;;;;;;;;;;;28.39;52.11;94956.03;5117108;28;1110;-53
2023/07/03 14:15:45;;;;;;;;;;;;;;;28.52;50.78;94949.97;5117028;28;1975;-53
2023/07/03 14:18:11;;;;;;;;;;;;;;;28.56;50.11;94945.56;5117130;28;1035;-53
2023/07/03 14:20:37;;;;;;;;;;;;;;;28.52;50.44;94947.22;5117083;28;1483;-53
2023/07/03 14:23:05;;;;;;;;;;;;;;;28.56;52.12;94956.56;5117224;28;948;-53
2023/07/03 14:25:31;;;;;;;;;;;;;;;28.58;51.78;94940.59;5116898;28;1007;-53
2023/07/03 14:27:58;;;;;;;;;;;;;;;28.49;53.08;94955.19;5116925;28;1095;-53
2023/07/03 14:30:25;;;;;;;;;;;;;;;28.46;51.48;94958.47;5116749;28;1071;-53
2023/07/03 14:32:51;;;;;;;;;;;;;;;28.42;52.52;94945.31;5116774;28;1808;-52
2023/07/03 14:35:17;;;;;;;;;;;;;;;28.27;51.86;94955.50;5116642;28;1930;-52
2023/07/03 14:37:43;;;;;;;;;;;;;;;28.28;52.19;94954.41;5116746;27;1031;-52
2023/07/03 14:40:11;;;;;;;;;;;;;;;28.38;52.14;94954.38;5116892;28;948;-53
2023/07/03 14:42:37;;;;;;;;;;;;;;;28.42;51.07;94955.50;5116535;28;1032;-52
2023/07/03 14:45:03;;;;;;;;;;;;;;;28.21;50.18;94950.03;5116644;28;976;-52
2023/07/03 14:47:29;;;;;;;;;;;;;;;28.11;52.25;94950.03;5115301;28;1032;-53
2023/07/03 14:49:55;;;;;;;;;;;;;;;28.09;53.25;94954.97;5116532;28;1051;-52
2023/07/03 14:52:21;;;;;;;;;;;;;;;27.98;53.93;94945.09;5116416;28;1071;-53
2023/07/03 14:54:47;;;;;;;;;;;;;;;27.82;52.25;94952.50;5116335;28;1015;-53
2023/07/03 14:57:13;;;;;;;;;;;;;;;27.90;50.33;94948.41;5116246;28;1914;-52
2023/07/03 14:59:40;;;;;;;;;;;;;;;28.08;51.78;94944.25;5116451;28;1030;-53
2023/07/03 15:02:07;;;;;;;;;;;;;;;28.19;51.18;94949.47;5116358;28;1047;-53
2023/07/03 15:04:33;;;;;;;;;;;;;;;28.14;51.09;94943.97;5116130;28;1021;-53
2023/07/03 15:06:59;;;;;;;;;;;;;;;28.00;52.11;94948.38;5116154;28;1028;-53
2023/07/03 15:09:25;;;;;;;;;;;;;;;28.03;53.38;94950.59;5115996;28;1111;-53
2023/07/03 15:11:51;;;;;;;;;;;;;;;27.90;53.51;94948.41;5116208;28;1738;-53
2023/07/03 15:14:17;;;;;;;;;;;;;;;27.87;53.55;94947.00;5114654;28;1043;-52
2023/07/03 15:16:43;;;;;;;;;;;;;;;27.70;54.41;94955.50;5115770;28;1985;-52
2023/07/03 15:19:12;;;;;;;;;;;;;;;27.56;54.60;94952.47;5115943;28;1019;-53
2023/07/03 15:21:38;;;;;;;;;;;;;;;27.52;54.43;94953.28;5116120;28;1039;-52
2023/07/03 15:24:06;;;;;;;;;;;;;;;27.43;55.42;94961.22;5116045;27;941;-52
2023/07/03 15:26:32;;;;;;;;;;;;;;;27.46;54.33;94955.22;5115845;28;1003;-53
2023/07/03 15:28:59;;;;;;;;;;;;;;;27.50;52.85;94955.50;5115920;28;1033;-53
2023/07/03 15:31:26;;;;;;;;;;;;;;;27.43;56.00;94961.22;5115685;28;969;-53
2023/07/03 15:33:52;;;;;;;;;;;;;;;27.30;54.70;94953.53;5115619;28;1048;-53
2023/07/03 15:36:18;;;;;;;;;;;;;;;27.25;55.76;94952.41;5115476;28;1987;-53
2023/07/03 15:38:44;;;;;;;;;;;;;;;27.19;55.08;94953.47;5115760;28;1003;-53
2023/07/03 15:41:10;;;;;;;;;;;;;;;27.27;55.66;94949.41;5115486;28;1083;-53
2023/07/03 15:43:37;;;;;;;;;;;;;;;27.36;55.95;94945.03;5115560;28;1002;-53
2023/07/03 15:46:12;;;;;;;;;;;;;;;27.37;55.29;94951.34;5115284;28;1095;-53
2023/07/03 15:48:38;;;;;;;;;;;;;;;27.39;54.06;94951.91;5115264;28;965;-53
2023/07/03 15:51:05;;;;;;;;;;;;;;;27.46;54.14;94952.47;5115455;28;1040;-53
2023/07/03 15:53:31;;;;;;;;;;;;;;;27.51;54.78;94957.13;5115153;28;1024;-53
2023/07/03 15:55:58;;;;;;;;;;;;;;;27.55;56.09;94952.75;5115096;28;1898;-53
2023/07/03 15:58:25;;;;;;;;;;;;;;;27.53;55.04;94954.97;5115093;28;1152;-53
2023/07/03 16:01:10;;;;;;;;;;;;;;;27.40;54.61;94954.38;5115165;28;1044;-53
2023/07/03 16:03:37;;;;;;;;;;;;;;;27.27;55.41;94952.16;5115320;28;971;-53
2023/07/03 16:06:03;;;;;;;;;;;;;;;27.17;56.14;94950.19;5115021;28;1092;-53
2023/07/03 16:08:29;;;;;;;;;;;;;;;27.20;56.21;94955.13;5115047;28;1003;-53
2023/07/03 16:10:56;;;;;;;;;;;;;;;27.17;56.68;94960.34;5115002;28;1746;-53
2023/07/03 16:13:23;;;;;;;;;;;;;;;27.18;57.26;94953.75;5114860;28;959;-53
2023/07/03 16:15:49;;;;;;;;;;;;;;;27.30;57.46;94961.75;5114572;28;1910;-53
2023/07/03 16:18:15;;;;;;;;;;;;;;;27.32;56.58;94965.06;5114934;28;968;-56
2023/07/03 16:20:41;;;;;;;;;;;;;;;27.25;57.13;94962.59;5114874;28;940;-55
2023/07/03 16:23:07;;;;;;;;;;;;;;;27.21;57.04;94955.97;5114846;28;1002;-55
2023/07/03 16:25:33;;;;;;;;;;;;;;;27.18;57.59;94960.06;5114132;28;1240;-56
2023/07/03 16:28:00;;;;;;;;;;;;;;;27.14;61.11;94960.88;5113433;28;1047;-55
2023/07/03 16:30:26;;;;;;;;;;;;;;;27.02;64.60;94961.13;5113280;28;1055;-55
2023/07/03 16:32:53;;;;;;;;;;;;;;;26.83;65.94;94966.25;5114702;28;964;-55
2023/07/03 16:35:19;;;;;;;;;;;;;;;26.70;65.01;94967.56;5114356;28;1913;-54
2023/07/03 16:37:46;;;;;;;;;;;;;;;26.70;66.43;94970.31;5114562;28;1053;-54
2023/07/03 16:40:13;;;;;;;;;;;;;;;26.78;65.96;94974.47;5114340;28;999;-54
2023/07/03 16:42:39;;;;;;;;;;;;;;;26.92;65.24;94969.28;5114334;28;1151;-54
2023/07/03 16:45:05;;;;;;;;;;;;;;;27.07;65.10;94972.09;5113055;28;1011;-53
2023/07/03 16:47:31;;;;;;;;;;;;;;;27.11;64.56;94967.75;5114227;28;1127;-53
2023/07/03 16:49:58;;;;;;;;;;;;;;;26.98;66.80;94969.06;5114469;28;1046;-54
2023/07/03 16:52:24;;;;;;;;;;;;;;;26.85;67.04;94966.81;5114238;28;965;-53
2023/07/03 16:54:50;;;;;;;;;;;;;;;26.76;68.10;94968.41;5114119;28;1111;-53
2023/07/03 16:57:16;;;;;;;;;;;;;;;26.61;70.35;94969.16;5113890;28;1979;-54
2023/07/03 16:59:42;;;;;;;;;;;;;;;26.42;73.47;94979.72;5112859;28;1052;-54
2023/07/03 17:02:08;;;;;;;;;;;;;;;26.39;69.46;94977.50;5114288;28;960;-54
2023/07/03 17:04:34;;;;;;;;;;;;;;;26.38;70.12;94978.59;5112700;28;1023;-54
2023/07/03 17:07:00;;;;;;;;;;;;;;;26.47;68.94;94980.56;5113984;28;1132;-53
2023/07/03 17:09:26;;;;;;;;;;;;;;;26.44;68.87;94991.25;5113886;28;1082;-53
2023/07/03 17:11:52;;;;;;;;;;;;;;;26.43;69.55;94987.69;5114003;28;1630;-53
2023/07/03 17:14:19;;;;;;;;;;;;;;;26.44;68.48;94993.97;5113823;28;1086;-53
2023/07/03 17:16:45;;;;;;;;;;;;;;;26.42;68.61;94993.41;5113851;28;1965;-53
2023/07/03 17:19:11;;;;;;;;;;;;;;;26.34;70.56;95000.22;5113992;28;1022;-54
2023/07/03 17:21:37;;;;;;;;;;;;;;;26.20;70.13;94999.03;5113990;28;1035;-53
2023/07/03 17:24:04;;;;;;;;;;;;;;;26.11;71.67;94995.97;5113956;28;964;-53
2023/07/03 17:26:31;;;;;;;;;;;;;;;26.05;71.69;94991.53;5113759;28;1019;-54
2023/07/03 17:28:57;;;;;;;;;;;;;;;25.94;72.89;94993.38;5113565;28;997;-54
2023/07/03 17:31:23;;;;;;;;;;;;;;;25.83;71.59;95000.63;5113707;28;1047;-52
2023/07/03 17:33:50;;;;;;;;;;;;;;;25.70;72.81;94998.31;5113981;28;975;-52
2023/07/03 17:36:16;;;;;;;;;;;;;;;25.62;73.08;94994.16;5113789;28;1902;-54
2023/07/03 17:38:42;;;;;;;;;;;;;;;25.57;72.88;95001.47;5116936;28;956;-53
2023/07/03 17:41:08;;;;;;;;;;;;;;;25.50;72.98;94993.50;5117840;28;1110;-52
2023/07/03 17:43:36;;;;;;;;;;;;;;;25.32;73.95;94995.50;5117697;28;980;-52
2023/07/03 17:46:03;;;;;;;;;;;;;;;25.25;73.66;94992.16;5117707;28;1082;-53
2023/07/03 17:48:29;;;;;;;;;;;;;;;25.20;74.09;94986.59;5117655;28;1079;-52
2023/07/03 17:50:55;;;;;;;;;;;;;;;25.14;73.44;94998.56;5117650;28;913;-52
2023/07/03 17:53:21;;;;;;;;;;;;;;;25.08;72.27;94994.09;5117476;28;1063;-53
2023/07/03 17:55:47;;;;;;;;;;;;;;;25.02;72.83;94995.13;5117414;28;1992;-53
2023/07/03 17:58:13;;;;;;;;;;;;;;;24.73;74.87;95006.25;5117273;28;1142;-53
2023/07/03 18:00:39;;;;;;;;;;;;;;;24.56;76.64;95006.31;5117796;28;1280;-52
2023/07/03 18:03:05;;;;;;;;;;;;;;;24.47;76.14;95005.03;5117646;28;1018;-52
2023/07/03 18:05:35;;;;;;;;;;;;;;;24.17;77.60;95022.66;5117454;28;1051;-52
2023/07/03 18:08:01;;;;;;;;;;;;;;;23.80;78.76;95020.41;5116253;28;960;-52
2023/07/03 18:10:29;;;;;;;;;;;;;;;23.56;82.53;95011.50;5117148;28;1795;-52
2023/07/03 18:12:55;;;;;;;;;;;;;;;23.46;80.40;95019.50;5117143;28;1051;-52
2023/07/03 18:15:21;;;;;;;;;;;;;;;23.58;78.37;95026.56;5117139;28;1909;-53
2023/07/03 18:17:47;;;;;;;;;;;;;;;23.72;81.44;95035.25;5117371;28;1044;-52
2023/07/03 18:20:13;;;;;;;;;;;;;;;23.61;81.68;95029.88;5117151;28;1036;-52
2023/07/03 18:22:39;;;;;;;;;;;;;;;23.31;83.54;95030.97;5117139;28;1050;-52
2023/07/03 18:25:05;;;;;;;;;;;;;;;23.07;84.48;95032.94;5117121;28;1277;-52
2023/07/03 18:27:32;;;;;;;;;;;;;;;23.05;83.34;95029.63;5116755;28;953;-52
2023/07/03 18:29:58;;;;;;;;;;;;;;;23.11;83.61;95045.03;5116930;28;1031;-52
2023/07/03 18:32:24;;;;;;;;;;;;;;;22.81;84.77;95046.84;5116895;28;1030;-52
2023/07/03 18:34:50;;;;;;;;;;;;;;;22.72;84.70;95051.00;5116801;28;1031;-52
2023/07/03 18:37:16;;;;;;;;;;;;;;;22.63;87.56;95049.72;5116590;28;1902;-52
2023/07/03 18:39:43;;;;;;;;;;;;;;;22.64;85.19;95054.13;5116776;28;1098;-52
2023/07/03 18:42:09;;;;;;;;;;;;;;;22.77;85.63;95058.50;5116587;28;956;-52
2023/07/03 18:44:35;;;;;;;;;;;;;;;22.57;86.37;95058.84;5116570;28;1020;-52
2023/07/03 18:47:03;;;;;;;;;;;;;;;22.50;85.23;95069.91;5115544;28;972;-52
2023/07/03 18:49:30;;;;;;;;;;;;;;;22.52;85.20;95072.34;5116118;28;1022;-52
2023/07/03 18:51:56;;;;;;;;;;;;;;;22.39;86.39;95077.00;5115255;28;1099;-52
2023/07/03 18:54:23;;;;;;;;;;;;;;;22.20;88.46;95075.44;5116353;28;983;-52
2023/07/03 18:56:49;;;;;;;;;;;;;;;22.03;88.44;95081.56;5116154;28;1909;-52
2023/07/03 18:59:15;;;;;;;;;;;;;;;22.02;88.23;95095.38;5116520;28;1014;-52
2023/07/03 19:01:41;;;;;;;;;;;;;;;22.05;87.62;95100.38;5116509;28;975;-51
2023/07/03 19:04:08;;;;;;;;;;;;;;;21.90;89.38;95106.25;5116429;28;961;-52
2023/07/03 19:06:34;;;;;;;;;;;;;;;21.91;89.14;95098.91;5114992;28;1210;-52
2023/07/03 19:09:00;;;;;;;;;;;;;;;21.83;89.86;95103.66;5116200;28;940;-51
2023/07/03 19:11:26;;;;;;;;;;;;;;;21.81;89.77;95099.50;5115944;28;1301;-51
2023/07/03 19:13:53;;;;;;;;;;;;;;;21.75;90.12;95098.53;5116026;28;1003;-52
2023/07/03 19:16:19;;;;;;;;;;;;;;;21.75;90.30;95105.88;5115815;28;1915;-52
2023/07/03 19:18:48;;;;;;;;;;;;;;;21.74;89.77;95110.50;5116114;28;960;-52
2023/07/03 19:21:15;;;;;;;;;;;;;;;21.63;89.72;95114.81;5115904;28;975;-52
2023/07/03 19:23:41;;;;;;;;;;;;;;;21.49;90.38;95123.38;5115864;28;1026;-51
2023/07/03 19:26:08;;;;;;;;;;;;;;;21.41;91.75;95127.22;5115830;28;1055;-53
2023/07/03 19:28:34;;;;;;;;;;;;;;;21.36;91.61;95127.06;5115671;28;1978;-52
2023/07/03 19:31:01;;;;;;;;;;;;;;;21.58;90.38;95136.44;5114729;28;1064;-53
2023/07/03 19:33:28;;;;;;;;;;;;;;;21.81;89.52;95132.16;5115675;28;1002;-52
2023/07/03 19:35:55;;;;;;;;;;;;;;;21.95;87.47;95133.63;5115633;28;1913;-52
2023/07/03 19:38:22;;;;;;;;;;;;;;;21.97;88.43;95142.38;5115425;28;1028;-52
2023/07/03 19:40:48;;;;;;;;;;;;;;;22.08;87.15;95148.06;5115575;28;1082;-52
2023/07/03 19:43:14;;;;;;;;;;;;;;;22.26;84.49;95152.66;5114395;28;973;-52
2023/07/03 19:45:40;;;;;;;;;;;;;;;22.44;82.41;95157.16;5115448;28;1097;-52
2023/07/03 19:48:07;;;;;;;;;;;;;;;22.62;79.90;95157.06;5115535;28;1111;-52
2023/07/03 19:50:35;;;;;;;;;;;;;;;22.74;79.06;95160.63;5115249;28;1019;-52
2023/07/03 19:53:01;;;;;;;;;;;;;;;22.90;79.88;95159.09;5115345;28;1078;-52
2023/07/03 19:55:27;;;;;;;;;;;;;;;22.99;78.74;95162.25;5114997;28;1995;-52
2023/07/03 19:57:54;;;;;;;;;;;;;;;22.98;77.90;95157.91;5115297;28;1421;-52
2023/07/03 20:00:20;;;;;;;;;;;;;;;22.93;77.80;95158.59;5114381;28;1055;-52
2023/07/03 20:02:47;;;;;;;;;;;;;;;22.98;77.57;95160.63;5115240;28;956;-52
2023/07/03 20:05:13;;;;;;;;;;;;;;;23.02;76.84;95158.25;5115083;28;1048;-52
2023/07/03 20:07:39;;;;;;;;;;;;;;;23.08;76.91;95169.03;5115272;28;1010;-52
2023/07/03 20:10:06;;;;;;;;;;;;;;;22.95;78.53;95161.09;5114892;28;1110;-52
2023/07/03 20:12:32;;;;;;;;;;;;;;;22.89;79.77;95164.78;5114708;28;1302;-52
2023/07/03 20:14:59;;;;;;;;;;;;;;;22.74;80.69;95171.50;5115026;28;972;-52
2023/07/03 20:17:25;;;;;;;;;;;;;;;22.56;83.43;95171.66;5114117;28;1913;-52
2023/07/03 20:19:54;;;;;;;;;;;;;;;22.41;82.66;95163.94;5114887;28;956;-52
2023/07/03 20:22:20;;;;;;;;;;;;;;;22.20;83.69;95173.44;5114710;28;1258;-52
2023/07/03 20:24:46;;;;;;;;;;;;;;;22.08;85.40;95172.56;5114657;28;948;-52
2023/07/03 20:27:12;;;;;;;;;;;;;;;21.92;85.76;95177.63;5114822;28;1003;-52
2023/07/03 20:29:39;;;;;;;;;;;;;;;21.79;86.85;95175.09;5114791;28;1039;-52
2023/07/03 20:32:05;;;;;;;;;;;;;;;21.77;86.58;95171.78;5114692;28;1003;-52
2023/07/03 20:34:33;;;;;;;;;;;;;;;21.79;86.44;95178.63;5114512;28;975;-52
2023/07/03 20:36:59;;;;;;;;;;;;;;;21.80;85.63;95174.03;5114379;28;2397;-51
2023/07/03 20:39:25;;;;;;;;;;;;;;;21.86;85.94;95166.84;5114710;28;1063;-52
2023/07/03 20:41:51;;;;;;;;;;;;;;;21.72;86.66;95172.47;5114570;28;1123;-52
2023/07/03 20:44:17;;;;;;;;;;;;;;;21.58;88.88;95171.81;5114213;28;1126;-52
2023/07/03 20:46:44;;;;;;;;;;;;;;;21.46;88.42;95170.94;5114391;28;1023;-51
2023/07/03 20:49:10;;;;;;;;;;;;;;;21.38;88.15;95171.19;5114406;28;976;-52
2023/07/03 20:51:36;;;;;;;;;;;;;;;21.37;88.24;95161.38;5114315;28;1038;-52
2023/07/03 20:54:11;;;;;;;;;;;;;;;21.16;88.42;95166.22;5114233;28;1136;-52
2023/07/03 20:56:38;;;;;;;;;;;;;;;20.94;89.67;95165.00;5114253;28;1910;-51
2023/07/03 20:59:04;;;;;;;;;;;;;;;20.90;90.35;95163.81;5114194;28;1039;-51
2023/07/03 21:01:32;;;;;;;;;;;;;;;20.98;90.45;95160.78;5114155;28;1042;-51
2023/07/03 21:03:59;;;;;;;;;;;;;;;20.83;92.58;95178.28;5114134;28;1027;-51
2023/07/03 21:06:29;;;;;;;;;;;;;;;20.60;92.21;95170.78;5113991;28;1220;-52
2023/07/03 21:08:56;;;;;;;;;;;;;;;20.60;92.53;95170.78;5114062;28;900;-51
2023/07/03 21:11:23;;;;;;;;;;;;;;;20.47;93.82;95162.72;5113857;28;1690;-52
2023/07/03 21:13:50;;;;;;;;;;;;;;;20.31;94.75;95174.13;5113942;28;1700;-51
2023/07/03 21:16:18;;;;;;;;;;;;;;;20.39;94.63;95169.25;5113483;28;1968;-52
2023/07/03 21:18:44;;;;;;;;;;;;;;;20.62;93.08;95162.41;5113897;28;1035;-52
2023/07/03 21:21:11;;;;;;;;;;;;;;;20.56;95.71;95158.66;5113810;28;976;-51
2023/07/03 21:23:38;;;;;;;;;;;;;;;20.34;95.47;95166.38;5114081;28;992;-51
2023/07/03 21:26:04;;;;;;;;;;;;;;;20.33;94.38;95169.31;5113845;28;1032;-51
2023/07/03 21:28:30;;;;;;;;;;;;;;;20.38;94.16;95170.31;5113806;28;1042;-51
2023/07/03 21:30:56;;;;;;;;;;;;;;;20.35;94.98;95173.47;5113941;28;1040;-51
2023/07/03 21:33:22;;;;;;;;;;;;;;;20.25;96.63;95168.53;5113744;28;1055;-51
2023/07/03 21:35:49;;;;;;;;;;;;;;;20.12;95.94;95167.81;5114133;28;1994;-51
2023/07/03 21:38:15;;;;;;;;;;;;;;;19.98;96.77;95167.09;5113931;28;1004;-52
2023/07/03 21:40:51;;;;;;;;;;;;;;;19.94;97.78;95174.84;5113929;28;1009;-51
2023/07/03 21:43:18;;;;;;;;;;;;;;;20.09;96.08;95175.34;5113755;28;1118;-52
2023/07/03 21:45:43;;;;;;;;;;;;;;;20.21;95.34;95180.88;5113772;28;920;-52
2023/07/03 21:48:10;;;;;;;;;;;;;;;19.97;95.75;95176.25;5113624;28;987;-51
2023/07/03 21:50:35;;;;;;;;;;;;;;;19.82;98.21;95180.09;5113653;28;1031;-52
2023/07/03 21:53:01;;;;;;;;;;;;;;;19.63;97.77;95173.72;5113784;28;1031;-52
2023/07/03 21:55:27;;;;;;;;;;;;;;;19.52;98.06;95174.41;5112526;28;965;-52
2023/07/03 21:57:53;;;;;;;;;;;;;;;19.29;100.00;95178.47;5113556;28;1561;-52
2023/07/03 22:00:20;;;;;;;;;;;;;;;19.24;100.00;95188.31;5113401;28;1079;-51
2023/07/03 22:02:46;;;;;;;;;;;;;;;19.43;99.91;95183.84;5113584;28;1060;-52
2023/07/03 22:05:12;;;;;;;;;;;;;;;19.53;99.13;95191.50;5113665;28;1084;-52
2023/07/03 22:07:38;;;;;;;;;;;;;;;19.59;99.93;95186.03;5113706;28;972;-52
2023/07/03 22:10:04;;;;;;;;;;;;;;;19.59;99.67;95186.03;5113592;28;983;-52
2023/07/03 22:12:30;;;;;;;;;;;;;;;19.39;99.88;95180.72;5113202;28;1695;-52
2023/07/03 22:14:57;;;;;;;;;;;;;;;19.38;99.77;95179.06;5113433;28;1067;-52
2023/07/03 22:17:23;;;;;;;;;;;;;;;19.25;100.00;95173.69;5113081;28;1913;-52
2023/07/03 22:19:49;;;;;;;;;;;;;;;19.15;100.00;95171.44;5113385;28;1182;-52